sensor_id;sensor_type;location;lat;lon;timestamp;temperature;humidity
40702;DHT22;26387;50.114;8.662;2022-09-21T00:00:33;14.10;89.40
40702;DHT22;26387;50.114;8.662;2022-09-21T00:02:59;14.00;89.40
40702;DHT22;26387;50.114;8.662;2022-09-21T00:05:24;14.00;89.60
40702;DHT22;26387;50.114;8.662;2022-09-21T00:07:50;13.90;89.70
40702;DHT22;26387;50.114;8.662;2022-09-21T00:10:16;13.90;89.90
40702;DHT22;26387;50.114;8.662;2022-09-21T00:12:43;13.90;90.00
40702;DHT22;26387;50.114;8.662;2022-09-21T00:15:12;13.80;90.10
40702;DHT22;26387;50.114;8.662;2022-09-21T00:17:38;13.80;90.20
40702;DHT22;26387;50.114;8.662;2022-09-21T00:20:04;13.70;90.20
40702;DHT22;26387;50.114;8.662;2022-09-21T00:22:31;13.70;90.20
40702;DHT22;26387;50.114;8.662;2022-09-21T00:24:56;13.70;90.30
40702;DHT22;26387;50.114;8.662;2022-09-21T00:27:22;13.60;90.20
40702;DHT22;26387;50.114;8.662;2022-09-21T00:29:54;13.60;90.20
40702;DHT22;26387;50.114;8.662;2022-09-21T00:32:20;13.50;90.30
40702;DHT22;26387;50.114;8.662;2022-09-21T00:34:45;13.60;90.40
40702;DHT22;26387;50.114;8.662;2022-09-21T00:39:37;13.50;90.30
40702;DHT22;26387;50.114;8.662;2022-09-21T00:42:08;13.40;90.50
40702;DHT22;26387;50.114;8.662;2022-09-21T00:44:34;13.40;90.60
40702;DHT22;26387;50.114;8.662;2022-09-21T00:47:05;13.30;90.70
40702;DHT22;26387;50.114;8.662;2022-09-21T00:49:32;13.30;90.80
40702;DHT22;26387;50.114;8.662;2022-09-21T00:51:58;13.30;90.90
40702;DHT22;26387;50.114;8.662;2022-09-21T00:54:28;13.30;91.00
40702;DHT22;26387;50.114;8.662;2022-09-21T00:56:54;13.20;91.00
40702;DHT22;26387;50.114;8.662;2022-09-21T00:59:20;13.20;91.00
40702;DHT22;26387;50.114;8.662;2022-09-21T01:01:46;13.20;91.10
40702;DHT22;26387;50.114;8.662;2022-09-21T01:04:12;13.20;91.20
40702;DHT22;26387;50.114;8.662;2022-09-21T01:06:38;13.10;91.20
40702;DHT22;26387;50.114;8.662;2022-09-21T01:09:05;13.10;91.30
40702;DHT22;26387;50.114;8.662;2022-09-21T01:14:18;13.00;91.30
40702;DHT22;26387;50.114;8.662;2022-09-21T01:16:54;13.00;91.30
40702;DHT22;26387;50.114;8.662;2022-09-21T01:19:42;13.00;91.40
40702;DHT22;26387;50.114;8.662;2022-09-21T01:29:50;12.90;91.90
40702;DHT22;26387;50.114;8.662;2022-09-21T01:32:18;12.90;91.90
40702;DHT22;26387;50.114;8.662;2022-09-21T01:34:55;12.90;92.00
40702;DHT22;26387;50.114;8.662;2022-09-21T01:37:23;12.90;92.00
40702;DHT22;26387;50.114;8.662;2022-09-21T01:39:50;12.90;92.10
40702;DHT22;26387;50.114;8.662;2022-09-21T01:42:17;12.90;92.20
40702;DHT22;26387;50.114;8.662;2022-09-21T01:44:44;12.90;92.20
40702;DHT22;26387;50.114;8.662;2022-09-21T01:47:11;12.90;92.20
40702;DHT22;26387;50.114;8.662;2022-09-21T01:49:39;12.90;92.20
40702;DHT22;26387;50.114;8.662;2022-09-21T01:52:52;12.90;92.30
40702;DHT22;26387;50.114;8.662;2022-09-21T01:54:52;12.80;92.30
40702;DHT22;26387;50.114;8.662;2022-09-21T01:59:53;12.80;92.30
40702;DHT22;26387;50.114;8.662;2022-09-21T02:02:22;12.80;92.30
40702;DHT22;26387;50.114;8.662;2022-09-21T02:04:49;12.80;92.30
40702;DHT22;26387;50.114;8.662;2022-09-21T02:07:15;12.80;92.30
40702;DHT22;26387;50.114;8.662;2022-09-21T02:09:41;12.80;92.30
40702;DHT22;26387;50.114;8.662;2022-09-21T02:12:06;12.70;92.20
40702;DHT22;26387;50.114;8.662;2022-09-21T02:14:32;12.70;92.20
40702;DHT22;26387;50.114;8.662;2022-09-21T02:17:04;12.70;92.20
40702;DHT22;26387;50.114;8.662;2022-09-21T02:22:28;12.70;92.30
40702;DHT22;26387;50.114;8.662;2022-09-21T02:25:04;12.60;92.20
40702;DHT22;26387;50.114;8.662;2022-09-21T02:27:33;12.60;92.20
40702;DHT22;26387;50.114;8.662;2022-09-21T02:30:08;12.60;92.20
40702;DHT22;26387;50.114;8.662;2022-09-21T02:32:39;12.50;92.30
40702;DHT22;26387;50.114;8.662;2022-09-21T02:38:00;12.50;92.30
40702;DHT22;26387;50.114;8.662;2022-09-21T02:40:30;12.40;92.40
40702;DHT22;26387;50.114;8.662;2022-09-21T02:42:58;12.40;92.50
40702;DHT22;26387;50.114;8.662;2022-09-21T02:45:27;12.40;92.40
40702;DHT22;26387;50.114;8.662;2022-09-21T03:46:35;12.40;92.40
40702;DHT22;26387;50.114;8.662;2022-09-21T03:49:00;12.00;92.90
40702;DHT22;26387;50.114;8.662;2022-09-21T03:51:27;12.00;93.10
40702;DHT22;26387;50.114;8.662;2022-09-21T03:53:55;11.90;93.00
40702;DHT22;26387;50.114;8.662;2022-09-21T03:56:21;11.90;93.10
40702;DHT22;26387;50.114;8.662;2022-09-21T03:58:46;11.90;93.10
40702;DHT22;26387;50.114;8.662;2022-09-21T04:01:12;11.90;93.10
40702;DHT22;26387;50.114;8.662;2022-09-21T04:03:37;11.90;93.00
40702;DHT22;26387;50.114;8.662;2022-09-21T04:06:10;11.90;93.10
40702;DHT22;26387;50.114;8.662;2022-09-21T04:08:36;11.90;93.10
40702;DHT22;26387;50.114;8.662;2022-09-21T04:11:07;11.90;93.10
40702;DHT22;26387;50.114;8.662;2022-09-21T04:13:33;11.90;92.90
40702;DHT22;26387;50.114;8.662;2022-09-21T04:15:59;11.90;93.00
40702;DHT22;26387;50.114;8.662;2022-09-21T04:18:24;11.90;93.00
40702;DHT22;26387;50.114;8.662;2022-09-21T04:20:50;11.80;93.10
40702;DHT22;26387;50.114;8.662;2022-09-21T04:23:15;11.70;93.20
40702;DHT22;26387;50.114;8.662;2022-09-21T04:25:42;11.70;93.10
40702;DHT22;26387;50.114;8.662;2022-09-21T04:28:07;11.70;93.40
40702;DHT22;26387;50.114;8.662;2022-09-21T04:30:33;11.70;93.10
40702;DHT22;26387;50.114;8.662;2022-09-21T04:32:59;11.70;93.20
40702;DHT22;26387;50.114;8.662;2022-09-21T04:35:25;11.80;93.30
40702;DHT22;26387;50.114;8.662;2022-09-21T04:37:53;11.70;93.10
40702;DHT22;26387;50.114;8.662;2022-09-21T04:40:18;11.80;93.10
40702;DHT22;26387;50.114;8.662;2022-09-21T04:42:44;11.70;93.00
40702;DHT22;26387;50.114;8.662;2022-09-21T04:45:14;11.80;93.10
40702;DHT22;26387;50.114;8.662;2022-09-21T04:47:40;11.80;93.10
40702;DHT22;26387;50.114;8.662;2022-09-21T04:50:05;11.70;93.00
40702;DHT22;26387;50.114;8.662;2022-09-21T04:52:31;11.70;93.00
40702;DHT22;26387;50.114;8.662;2022-09-21T04:54:56;11.70;93.10
40702;DHT22;26387;50.114;8.662;2022-09-21T04:57:22;11.70;93.10
40702;DHT22;26387;50.114;8.662;2022-09-21T04:59:47;11.70;93.00
40702;DHT22;26387;50.114;8.662;2022-09-21T05:02:13;11.60;93.00
40702;DHT22;26387;50.114;8.662;2022-09-21T05:04:38;11.60;93.10
40702;DHT22;26387;50.114;8.662;2022-09-21T05:07:04;11.60;93.20
40702;DHT22;26387;50.114;8.662;2022-09-21T05:09:29;11.60;93.10
40702;DHT22;26387;50.114;8.662;2022-09-21T05:12:13;11.50;93.10
40702;DHT22;26387;50.114;8.662;2022-09-21T05:14:38;11.60;93.10
40702;DHT22;26387;50.114;8.662;2022-09-21T05:17:05;11.60;93.10
40702;DHT22;26387;50.114;8.662;2022-09-21T05:19:30;11.50;93.10
40702;DHT22;26387;50.114;8.662;2022-09-21T05:21:56;11.50;93.10
40702;DHT22;26387;50.114;8.662;2022-09-21T05:24:21;11.50;93.20
40702;DHT22;26387;50.114;8.662;2022-09-21T05:26:47;11.60;93.10
40702;DHT22;26387;50.114;8.662;2022-09-21T05:29:12;11.50;93.00
40702;DHT22;26387;50.114;8.662;2022-09-21T05:39:19;11.60;93.00
40702;DHT22;26387;50.114;8.662;2022-09-21T05:41:45;11.50;93.00
40702;DHT22;26387;50.114;8.662;2022-09-21T05:44:13;11.60;93.00
40702;DHT22;26387;50.114;8.662;2022-09-21T05:49:06;11.50;92.80
40702;DHT22;26387;50.114;8.662;2022-09-21T05:51:35;11.50;92.80
40702;DHT22;26387;50.114;8.662;2022-09-21T05:54:08;11.60;92.70
40702;DHT22;26387;50.114;8.662;2022-09-21T05:56:57;11.60;92.60
40702;DHT22;26387;50.114;8.662;2022-09-21T06:01:59;11.60;92.60
40702;DHT22;26387;50.114;8.662;2022-09-21T06:04:26;11.60;92.60
40702;DHT22;26387;50.114;8.662;2022-09-21T06:06:51;11.60;92.60
40702;DHT22;26387;50.114;8.662;2022-09-21T06:09:17;11.60;92.50
40702;DHT22;26387;50.114;8.662;2022-09-21T06:11:45;11.70;92.50
40702;DHT22;26387;50.114;8.662;2022-09-21T06:14:10;11.70;92.40
40702;DHT22;26387;50.114;8.662;2022-09-21T06:16:37;11.70;92.30
40702;DHT22;26387;50.114;8.662;2022-09-21T06:19:02;11.70;92.60
40702;DHT22;26387;50.114;8.662;2022-09-21T06:21:28;11.70;92.70
40702;DHT22;26387;50.114;8.662;2022-09-21T06:23:53;11.70;92.30
40702;DHT22;26387;50.114;8.662;2022-09-21T06:26:19;11.70;92.30
40702;DHT22;26387;50.114;8.662;2022-09-21T06:28:44;11.70;92.20
40702;DHT22;26387;50.114;8.662;2022-09-21T06:31:10;11.70;92.30
40702;DHT22;26387;50.114;8.662;2022-09-21T06:33:35;11.70;92.40
40702;DHT22;26387;50.114;8.662;2022-09-21T06:36:02;11.70;92.30
40702;DHT22;26387;50.114;8.662;2022-09-21T06:38:27;11.80;92.30
40702;DHT22;26387;50.114;8.662;2022-09-21T06:40:54;11.80;92.30
40702;DHT22;26387;50.114;8.662;2022-09-21T06:43:19;11.80;92.20
40702;DHT22;26387;50.114;8.662;2022-09-21T06:45:51;11.90;92.20
40702;DHT22;26387;50.114;8.662;2022-09-21T06:48:17;11.90;92.20
40702;DHT22;26387;50.114;8.662;2022-09-21T06:50:42;11.90;92.10
40702;DHT22;26387;50.114;8.662;2022-09-21T06:53:08;12.00;92.40
40702;DHT22;26387;50.114;8.662;2022-09-21T06:55:33;12.00;92.10
40702;DHT22;26387;50.114;8.662;2022-09-21T06:58:00;12.10;91.90
40702;DHT22;26387;50.114;8.662;2022-09-21T07:00:26;12.10;92.00
40702;DHT22;26387;50.114;8.662;2022-09-21T07:02:51;12.20;92.00
40702;DHT22;26387;50.114;8.662;2022-09-21T07:05:17;12.30;91.90
40702;DHT22;26387;50.114;8.662;2022-09-21T07:07:42;12.40;91.80
40702;DHT22;26387;50.114;8.662;2022-09-21T07:10:08;12.50;91.60
40702;DHT22;26387;50.114;8.662;2022-09-21T07:12:33;12.60;91.50
40702;DHT22;26387;50.114;8.662;2022-09-21T07:15:00;12.70;91.20
40702;DHT22;26387;50.114;8.662;2022-09-21T07:17:30;12.70;91.00
40702;DHT22;26387;50.114;8.662;2022-09-21T07:19:55;12.80;90.80
40702;DHT22;26387;50.114;8.662;2022-09-21T07:22:21;12.80;90.60
40702;DHT22;26387;50.114;8.662;2022-09-21T07:24:46;13.00;90.50
40702;DHT22;26387;50.114;8.662;2022-09-21T07:27:12;13.00;90.30
40702;DHT22;26387;50.114;8.662;2022-09-21T07:29:37;13.00;90.30
40702;DHT22;26387;50.114;8.662;2022-09-21T07:32:03;13.10;90.30
40702;DHT22;26387;50.114;8.662;2022-09-21T07:49:06;13.20;90.20
40702;DHT22;26387;50.114;8.662;2022-09-21T07:51:31;13.40;89.20
40702;DHT22;26387;50.114;8.662;2022-09-21T07:53:57;13.40;89.10
40702;DHT22;26387;50.114;8.662;2022-09-21T07:56:22;13.40;89.40
40702;DHT22;26387;50.114;8.662;2022-09-21T07:58:48;13.40;89.20
40702;DHT22;26387;50.114;8.662;2022-09-21T08:01:35;13.40;89.30
40702;DHT22;26387;50.114;8.662;2022-09-21T08:04:02;13.40;89.30
40702;DHT22;26387;50.114;8.662;2022-09-21T08:06:28;13.40;89.40
40702;DHT22;26387;50.114;8.662;2022-09-21T08:08:55;13.40;89.20
40702;DHT22;26387;50.114;8.662;2022-09-21T08:11:21;13.50;89.40
40702;DHT22;26387;50.114;8.662;2022-09-21T08:13:47;13.60;89.20
40702;DHT22;26387;50.114;8.662;2022-09-21T08:16:12;13.70;89.00
40702;DHT22;26387;50.114;8.662;2022-09-21T08:18:39;13.80;88.30
40702;DHT22;26387;50.114;8.662;2022-09-21T08:21:05;14.00;87.90
40702;DHT22;26387;50.114;8.662;2022-09-21T08:30:50;14.10;87.50
40702;DHT22;26387;50.114;8.662;2022-09-21T08:33:15;14.80;85.70
40702;DHT22;26387;50.114;8.662;2022-09-21T08:35:41;14.80;85.30
40702;DHT22;26387;50.114;8.662;2022-09-21T08:38:07;14.90;85.00
40702;DHT22;26387;50.114;8.662;2022-09-21T08:40:32;15.10;84.90
40702;DHT22;26387;50.114;8.662;2022-09-21T08:43:03;15.20;84.10
40702;DHT22;26387;50.114;8.662;2022-09-21T08:45:47;15.40;83.50
40702;DHT22;26387;50.114;8.662;2022-09-21T08:48:31;15.50;83.30
40702;DHT22;26387;50.114;8.662;2022-09-21T08:51:00;15.50;82.40
40702;DHT22;26387;50.114;8.662;2022-09-21T08:53:31;15.60;82.90
40702;DHT22;26387;50.114;8.662;2022-09-21T08:55:57;15.70;81.90
40702;DHT22;26387;50.114;8.662;2022-09-21T08:58:23;15.80;81.70
40702;DHT22;26387;50.114;8.662;2022-09-21T09:03:35;16.00;80.40
40702;DHT22;26387;50.114;8.662;2022-09-21T09:06:05;16.00;80.40
40702;DHT22;26387;50.114;8.662;2022-09-21T09:08:36;16.10;80.10
40702;DHT22;26387;50.114;8.662;2022-09-21T09:16:01;16.30;78.80
40702;DHT22;26387;50.114;8.662;2022-09-21T09:18:33;16.40;79.00
40702;DHT22;26387;50.114;8.662;2022-09-21T09:21:04;16.50;78.60
40702;DHT22;26387;50.114;8.662;2022-09-21T09:23:34;16.50;78.50
40702;DHT22;26387;50.114;8.662;2022-09-21T09:26:09;16.50;77.50
40702;DHT22;26387;50.114;8.662;2022-09-21T09:28:40;16.40;78.00
40702;DHT22;26387;50.114;8.662;2022-09-21T09:31:11;16.40;76.80
40702;DHT22;26387;50.114;8.662;2022-09-21T09:33:43;16.40;76.80
40702;DHT22;26387;50.114;8.662;2022-09-21T09:36:11;16.40;76.50
40702;DHT22;26387;50.114;8.662;2022-09-21T09:38:44;16.50;76.50
40702;DHT22;26387;50.114;8.662;2022-09-21T09:41:27;16.50;75.60
40702;DHT22;26387;50.114;8.662;2022-09-21T09:51:49;16.60;74.90
40702;DHT22;26387;50.114;8.662;2022-09-21T09:54:15;16.60;74.90
40702;DHT22;26387;50.114;8.662;2022-09-21T09:56:42;16.70;74.70
40702;DHT22;26387;50.114;8.662;2022-09-21T09:59:12;16.70;74.70
40702;DHT22;26387;50.114;8.662;2022-09-21T10:01:42;16.70;74.50
40702;DHT22;26387;50.114;8.662;2022-09-21T10:04:08;16.70;74.80
40702;DHT22;26387;50.114;8.662;2022-09-21T10:06:34;16.70;74.80
40702;DHT22;26387;50.114;8.662;2022-09-21T10:09:00;16.80;74.70
40702;DHT22;26387;50.114;8.662;2022-09-21T10:11:35;16.80;74.70
40702;DHT22;26387;50.114;8.662;2022-09-21T10:14:13;16.90;74.10
40702;DHT22;26387;50.114;8.662;2022-09-21T10:16:40;16.90;73.80
40702;DHT22;26387;50.114;8.662;2022-09-21T10:19:10;17.00;73.90
40702;DHT22;26387;50.114;8.662;2022-09-21T10:21:39;17.00;73.10
40702;DHT22;26387;50.114;8.662;2022-09-21T10:24:16;17.00;74.20
40702;DHT22;26387;50.114;8.662;2022-09-21T10:26:46;17.10;74.00
40702;DHT22;26387;50.114;8.662;2022-09-21T10:29:16;17.20;73.70
40702;DHT22;26387;50.114;8.662;2022-09-21T10:31:55;17.20;74.10
40702;DHT22;26387;50.114;8.662;2022-09-21T10:34:21;17.20;73.50
40702;DHT22;26387;50.114;8.662;2022-09-21T10:36:51;17.10;95.40
40702;DHT22;26387;50.114;8.662;2022-09-21T10:39:19;17.20;95.10
40702;DHT22;26387;50.114;8.662;2022-09-21T10:42:05;17.10;74.00
40702;DHT22;26387;50.114;8.662;2022-09-21T10:44:33;17.10;74.10
40702;DHT22;26387;50.114;8.662;2022-09-21T10:47:02;17.20;73.30
40702;DHT22;26387;50.114;8.662;2022-09-21T10:49:28;17.30;71.90
40702;DHT22;26387;50.114;8.662;2022-09-21T10:51:55;17.40;72.10
40702;DHT22;26387;50.114;8.662;2022-09-21T10:54:30;17.40;72.20
40702;DHT22;26387;50.114;8.662;2022-09-21T10:57:01;17.50;71.60
40702;DHT22;26387;50.114;8.662;2022-09-21T10:59:29;17.60;72.30
40702;DHT22;26387;50.114;8.662;2022-09-21T11:01:55;17.60;71.70
40702;DHT22;26387;50.114;8.662;2022-09-21T11:06:48;17.90;71.00
40702;DHT22;26387;50.114;8.662;2022-09-21T11:09:17;17.90;69.70
40702;DHT22;26387;50.114;8.662;2022-09-21T11:11:58;17.90;69.50
40702;DHT22;26387;50.114;8.662;2022-09-21T11:17:15;17.90;68.80
40702;DHT22;26387;50.114;8.662;2022-09-21T11:22:29;18.00;68.40
40702;DHT22;26387;50.114;8.662;2022-09-21T11:27:29;18.10;68.90
40702;DHT22;26387;50.114;8.662;2022-09-21T11:30:12;18.20;68.90
40702;DHT22;26387;50.114;8.662;2022-09-21T12:47:24;19.60;58.70
40702;DHT22;26387;50.114;8.662;2022-09-21T13:14:14;21.70;52.20
40702;DHT22;26387;50.114;8.662;2022-09-21T13:16:39;26.90;45.90
40702;DHT22;26387;50.114;8.662;2022-09-21T13:19:21;27.50;43.00
40702;DHT22;26387;50.114;8.662;2022-09-21T13:21:53;28.10;41.00
40702;DHT22;26387;50.114;8.662;2022-09-21T13:27:04;28.00;41.40
40702;DHT22;26387;50.114;8.662;2022-09-21T13:34:24;33.70;35.00
40702;DHT22;26387;50.114;8.662;2022-09-21T14:28:09;38.40;27.40
40702;DHT22;26387;50.114;8.662;2022-09-21T14:30:35;36.70;28.30
40702;DHT22;26387;50.114;8.662;2022-09-21T14:33:18;37.10;28.50
40702;DHT22;26387;50.114;8.662;2022-09-21T14:35:44;38.30;28.10
40702;DHT22;26387;50.114;8.662;2022-09-21T14:38:22;38.20;27.90
40702;DHT22;26387;50.114;8.662;2022-09-21T14:40:49;38.00;28.00
40702;DHT22;26387;50.114;8.662;2022-09-21T14:43:26;36.90;28.30
40702;DHT22;26387;50.114;8.662;2022-09-21T14:50:57;31.50;30.90
40702;DHT22;26387;50.114;8.662;2022-09-21T15:03:41;27.60;33.90
40702;DHT22;26387;50.114;8.662;2022-09-21T15:12:11;27.20;34.40
40702;DHT22;26387;50.114;8.662;2022-09-21T15:14:41;27.20;34.70
40702;DHT22;26387;50.114;8.662;2022-09-21T15:17:43;26.30;34.60
40702;DHT22;26387;50.114;8.662;2022-09-21T15:22:27;25.30;35.90
40702;DHT22;26387;50.114;8.662;2022-09-21T15:24:57;23.60;38.70
40702;DHT22;26387;50.114;8.662;2022-09-21T15:27:27;23.20;39.50
40702;DHT22;26387;50.114;8.662;2022-09-21T15:29:57;23.10;40.70
40702;DHT22;26387;50.114;8.662;2022-09-21T15:32:33;22.90;39.90
40702;DHT22;26387;50.114;8.662;2022-09-21T15:35:00;22.80;40.40
40702;DHT22;26387;50.114;8.662;2022-09-21T15:37:26;22.50;41.60
40702;DHT22;26387;50.114;8.662;2022-09-21T15:39:59;22.20;41.40
40702;DHT22;26387;50.114;8.662;2022-09-21T15:42:25;22.10;42.00
40702;DHT22;26387;50.114;8.662;2022-09-21T15:44:53;21.90;43.30
40702;DHT22;26387;50.114;8.662;2022-09-21T15:47:24;21.60;43.00
40702;DHT22;26387;50.114;8.662;2022-09-21T15:49:51;21.50;43.40
40702;DHT22;26387;50.114;8.662;2022-09-21T15:52:28;21.40;44.20
40702;DHT22;26387;50.114;8.662;2022-09-21T15:54:59;21.40;44.20
40702;DHT22;26387;50.114;8.662;2022-09-21T15:57:34;21.20;45.50
40702;DHT22;26387;50.114;8.662;2022-09-21T16:02:39;21.20;45.90
40702;DHT22;26387;50.114;8.662;2022-09-21T16:05:06;21.20;45.00
40702;DHT22;26387;50.114;8.662;2022-09-21T16:07:34;21.40;45.90
40702;DHT22;26387;50.114;8.662;2022-09-21T16:10:00;21.50;45.30
40702;DHT22;26387;50.114;8.662;2022-09-21T16:12:44;21.50;44.30
40702;DHT22;26387;50.114;8.662;2022-09-21T16:15:18;21.60;44.60
40702;DHT22;26387;50.114;8.662;2022-09-21T16:17:54;21.50;44.70
40702;DHT22;26387;50.114;8.662;2022-09-21T16:20:22;21.50;43.90
40702;DHT22;26387;50.114;8.662;2022-09-21T16:22:52;21.40;44.60
40702;DHT22;26387;50.114;8.662;2022-09-21T16:28:05;21.20;45.10
40702;DHT22;26387;50.114;8.662;2022-09-21T16:30:39;21.00;45.40
40702;DHT22;26387;50.114;8.662;2022-09-21T16:35:48;20.70;47.00
40702;DHT22;26387;50.114;8.662;2022-09-21T16:38:14;20.60;47.30
40702;DHT22;26387;50.114;8.662;2022-09-21T16:40:40;20.60;48.10
40702;DHT22;26387;50.114;8.662;2022-09-21T16:43:08;20.50;48.70
40702;DHT22;26387;50.114;8.662;2022-09-21T16:45:34;20.40;48.90
40702;DHT22;26387;50.114;8.662;2022-09-21T16:48:00;20.30;49.00
40702;DHT22;26387;50.114;8.662;2022-09-21T16:50:32;20.20;49.30
40702;DHT22;26387;50.114;8.662;2022-09-21T16:52:57;20.10;49.80
40702;DHT22;26387;50.114;8.662;2022-09-21T16:55:22;19.90;49.90
40702;DHT22;26387;50.114;8.662;2022-09-21T16:57:48;19.80;50.10
40702;DHT22;26387;50.114;8.662;2022-09-21T17:00:15;19.70;50.30
40702;DHT22;26387;50.114;8.662;2022-09-21T17:02:45;19.60;50.80
40702;DHT22;26387;50.114;8.662;2022-09-21T17:05:10;19.50;52.20
40702;DHT22;26387;50.114;8.662;2022-09-21T17:07:40;19.40;52.50
40702;DHT22;26387;50.114;8.662;2022-09-21T17:10:12;19.20;53.30
40702;DHT22;26387;50.114;8.662;2022-09-21T17:12:38;19.10;53.40
40702;DHT22;26387;50.114;8.662;2022-09-21T17:15:04;19.10;52.70
40702;DHT22;26387;50.114;8.662;2022-09-21T17:17:32;19.10;52.90
40702;DHT22;26387;50.114;8.662;2022-09-21T17:19:57;18.90;52.80
40702;DHT22;26387;50.114;8.662;2022-09-21T17:22:26;18.90;53.10
40702;DHT22;26387;50.114;8.662;2022-09-21T17:24:53;18.70;54.50
40702;DHT22;26387;50.114;8.662;2022-09-21T17:27:19;18.70;54.80
40702;DHT22;26387;50.114;8.662;2022-09-21T17:29:45;18.60;55.00
40702;DHT22;26387;50.114;8.662;2022-09-21T17:32:21;18.50;55.60
40702;DHT22;26387;50.114;8.662;2022-09-21T17:34:51;18.40;55.10
40702;DHT22;26387;50.114;8.662;2022-09-21T17:37:18;18.40;56.40
40702;DHT22;26387;50.114;8.662;2022-09-21T17:39:44;18.30;56.90
40702;DHT22;26387;50.114;8.662;2022-09-21T17:42:17;18.20;56.30
40702;DHT22;26387;50.114;8.662;2022-09-21T17:47:28;18.10;56.60
40702;DHT22;26387;50.114;8.662;2022-09-21T17:50:00;18.10;56.80
40702;DHT22;26387;50.114;8.662;2022-09-21T17:52:26;18.00;57.00
40702;DHT22;26387;50.114;8.662;2022-09-21T17:55:11;17.90;57.20
40702;DHT22;26387;50.114;8.662;2022-09-21T17:57:39;17.90;57.20
40702;DHT22;26387;50.114;8.662;2022-09-21T18:00:12;17.80;57.50
40702;DHT22;26387;50.114;8.662;2022-09-21T18:02:38;17.80;57.70
40702;DHT22;26387;50.114;8.662;2022-09-21T18:05:08;17.70;57.90
40702;DHT22;26387;50.114;8.662;2022-09-21T18:07:38;17.70;58.20
40702;DHT22;26387;50.114;8.662;2022-09-21T18:10:04;17.50;58.80
40702;DHT22;26387;50.114;8.662;2022-09-21T18:12:40;17.50;59.40
40702;DHT22;26387;50.114;8.662;2022-09-21T18:15:20;17.40;59.60
40702;DHT22;26387;50.114;8.662;2022-09-21T18:25:26;17.30;60.10
40702;DHT22;26387;50.114;8.662;2022-09-21T18:27:53;17.20;60.40
40702;DHT22;26387;50.114;8.662;2022-09-21T18:30:20;17.20;60.80
40702;DHT22;26387;50.114;8.662;2022-09-21T18:32:52;17.20;61.40
40702;DHT22;26387;50.114;8.662;2022-09-21T18:35:31;17.20;62.00
40702;DHT22;26387;50.114;8.662;2022-09-21T18:40:56;17.20;62.60
40702;DHT22;26387;50.114;8.662;2022-09-21T18:43:32;17.20;62.90
40702;DHT22;26387;50.114;8.662;2022-09-21T18:46:03;17.30;62.90
40702;DHT22;26387;50.114;8.662;2022-09-21T18:53:48;17.30;62.80
40702;DHT22;26387;50.114;8.662;2022-09-21T18:56:14;17.30;63.00
40702;DHT22;26387;50.114;8.662;2022-09-21T18:58:41;17.20;62.70
40702;DHT22;26387;50.114;8.662;2022-09-21T19:01:09;17.10;63.90
40702;DHT22;26387;50.114;8.662;2022-09-21T19:03:36;17.10;64.40
40702;DHT22;26387;50.114;8.662;2022-09-21T19:06:12;16.90;64.50
40702;DHT22;26387;50.114;8.662;2022-09-21T19:08:42;16.90;65.00
40702;DHT22;26387;50.114;8.662;2022-09-21T19:11:29;16.80;64.70
40702;DHT22;26387;50.114;8.662;2022-09-21T19:19:13;16.80;64.20
40702;DHT22;26387;50.114;8.662;2022-09-21T19:21:54;16.70;64.40
40702;DHT22;26387;50.114;8.662;2022-09-21T19:27:14;16.60;64.50
40702;DHT22;26387;50.114;8.662;2022-09-21T19:32:12;16.50;64.60
40702;DHT22;26387;50.114;8.662;2022-09-21T19:34:38;16.50;64.40
40702;DHT22;26387;50.114;8.662;2022-09-21T19:37:04;16.50;64.80
40702;DHT22;26387;50.114;8.662;2022-09-21T19:39:29;16.40;65.10
40702;DHT22;26387;50.114;8.662;2022-09-21T19:42:04;16.40;65.50
40702;DHT22;26387;50.114;8.662;2022-09-21T19:49:44;16.20;66.60
40702;DHT22;26387;50.114;8.662;2022-09-21T19:52:13;16.20;66.90
40702;DHT22;26387;50.114;8.662;2022-09-21T19:54:40;16.20;67.40
40702;DHT22;26387;50.114;8.662;2022-09-21T19:57:24;16.10;67.70
40702;DHT22;26387;50.114;8.662;2022-09-21T20:00:09;16.10;67.90
40702;DHT22;26387;50.114;8.662;2022-09-21T20:02:36;16.00;68.30
40702;DHT22;26387;50.114;8.662;2022-09-21T20:12:27;15.80;69.90
40702;DHT22;26387;50.114;8.662;2022-09-21T20:14:59;15.70;69.90
40702;DHT22;26387;50.114;8.662;2022-09-21T20:17:48;15.70;70.20
40702;DHT22;26387;50.114;8.662;2022-09-21T20:20:22;15.70;70.40
40702;DHT22;26387;50.114;8.662;2022-09-21T20:22:48;15.60;70.70
40702;DHT22;26387;50.114;8.662;2022-09-21T20:25:57;15.60;71.20
40702;DHT22;26387;50.114;8.662;2022-09-21T20:28:02;15.60;71.70
40702;DHT22;26387;50.114;8.662;2022-09-21T20:30:29;15.50;71.80
40702;DHT22;26387;50.114;8.662;2022-09-21T20:32:59;15.50;72.40
40702;DHT22;26387;50.114;8.662;2022-09-21T20:35:26;15.40;72.50
40702;DHT22;26387;50.114;8.662;2022-09-21T20:37:52;15.40;72.70
40702;DHT22;26387;50.114;8.662;2022-09-21T20:40:18;15.40;73.10
40702;DHT22;26387;50.114;8.662;2022-09-21T20:42:44;15.40;73.00
40702;DHT22;26387;50.114;8.662;2022-09-21T20:45:10;15.30;73.10
40702;DHT22;26387;50.114;8.662;2022-09-21T20:47:36;15.40;73.60
40702;DHT22;26387;50.114;8.662;2022-09-21T20:50:02;15.20;74.20
40702;DHT22;26387;50.114;8.662;2022-09-21T20:52:28;15.20;74.40
40702;DHT22;26387;50.114;8.662;2022-09-21T20:54:53;15.20;74.50
40702;DHT22;26387;50.114;8.662;2022-09-21T20:57:19;15.20;74.30
40702;DHT22;26387;50.114;8.662;2022-09-21T20:59:44;15.20;74.40
40702;DHT22;26387;50.114;8.662;2022-09-21T21:02:11;15.20;74.60
40702;DHT22;26387;50.114;8.662;2022-09-21T21:04:37;15.10;74.70
40702;DHT22;26387;50.114;8.662;2022-09-21T21:07:02;15.10;74.80
40702;DHT22;26387;50.114;8.662;2022-09-21T21:09:28;15.10;74.90
40702;DHT22;26387;50.114;8.662;2022-09-21T21:11:54;15.10;74.90
40702;DHT22;26387;50.114;8.662;2022-09-21T21:14:19;15.00;75.80
40702;DHT22;26387;50.114;8.662;2022-09-21T21:16:45;15.00;75.50
40702;DHT22;26387;50.114;8.662;2022-09-21T21:19:10;15.00;75.40
40702;DHT22;26387;50.114;8.662;2022-09-21T21:21:36;15.00;75.60
40702;DHT22;26387;50.114;8.662;2022-09-21T21:24:02;15.00;75.90
40702;DHT22;26387;50.114;8.662;2022-09-21T21:26:46;14.90;75.90
40702;DHT22;26387;50.114;8.662;2022-09-21T21:29:11;14.90;76.20
40702;DHT22;26387;50.114;8.662;2022-09-21T21:31:37;14.90;76.20
40702;DHT22;26387;50.114;8.662;2022-09-21T21:34:02;14.90;76.30
40702;DHT22;26387;50.114;8.662;2022-09-21T21:36:28;14.80;76.20
40702;DHT22;26387;50.114;8.662;2022-09-21T21:38:53;14.80;76.30
40702;DHT22;26387;50.114;8.662;2022-09-21T21:41:19;14.80;76.20
40702;DHT22;26387;50.114;8.662;2022-09-21T21:43:44;14.80;76.30
40702;DHT22;26387;50.114;8.662;2022-09-21T21:46:09;14.80;76.30
40702;DHT22;26387;50.114;8.662;2022-09-21T21:48:36;14.70;76.20
40702;DHT22;26387;50.114;8.662;2022-09-21T21:51:02;14.70;76.20